sensor_id;sensor_type;location;lat;lon;timestamp;pressure;altitude;pressure_sealevel;temperature;humidity
73674;BME280;61975;48.660;10.164;2023-05-09T00:00:28;95939.84;;;14.17;100.00
73674;BME280;61975;48.660;10.164;2023-05-09T00:02:54;95939.03;;;14.17;100.00
73674;BME280;61975;48.660;10.164;2023-05-09T00:05:19;95943.44;;;14.18;100.00
73674;BME280;61975;48.660;10.164;2023-05-09T00:07:46;95939.84;;;14.17;100.00
73674;BME280;61975;48.660;10.164;2023-05-09T00:10:11;95931.03;;;14.15;100.00
73674;BME280;61975;48.660;10.164;2023-05-09T00:12:37;95928.66;;;14.14;100.00
73674;BME280;61975;48.660;10.164;2023-05-09T00:15:03;95922.69;;;14.08;100.00
73674;BME280;61975;48.660;10.164;2023-05-09T00:17:32;95930.66;;;14.10;100.00
73674;BME280;61975;48.660;10.164;2023-05-09T00:19:58;95932.66;;;14.09;100.00
73674;BME280;61975;48.660;10.164;2023-05-09T00:22:26;95929.47;;;14.07;100.00
73674;BME280;61975;48.660;10.164;2023-05-09T00:24:52;95924.28;;;14.06;100.00
73674;BME280;61975;48.660;10.164;2023-05-09T00:27:17;95924.69;;;14.04;100.00
73674;BME280;61975;48.660;10.164;2023-05-09T00:29:43;95917.50;;;14.03;100.00
73674;BME280;61975;48.660;10.164;2023-05-09T00:32:09;95911.91;;;14.03;100.00
73674;BME280;61975;48.660;10.164;2023-05-09T00:34:34;95911.13;;;13.99;100.00
73674;BME280;61975;48.660;10.164;2023-05-09T00:36:59;95902.34;;;13.97;100.00
73674;BME280;61975;48.660;10.164;2023-05-09T00:39:25;95911.91;;;13.96;100.00
73674;BME280;61975;48.660;10.164;2023-05-09T00:41:51;95905.94;;;13.94;100.00
73674;BME280;61975;48.660;10.164;2023-05-09T00:44:16;95905.13;;;13.90;100.00
73674;BME280;61975;48.660;10.164;2023-05-09T00:46:42;95899.56;;;13.87;100.00
73674;BME280;61975;48.660;10.164;2023-05-09T00:49:08;95898.34;;;13.84;100.00
73674;BME280;61975;48.660;10.164;2023-05-09T00:51:35;95896.34;;;13.81;100.00
73674;BME280;61975;48.660;10.164;2023-05-09T00:54:01;95898.34;;;13.77;100.00
73674;BME280;61975;48.660;10.164;2023-05-09T00:56:26;95911.50;;;13.73;100.00
73674;BME280;61975;48.660;10.164;2023-05-09T00:58:52;95901.91;;;13.67;100.00
73674;BME280;61975;48.660;10.164;2023-05-09T01:01:17;95898.31;;;13.63;100.00
73674;BME280;61975;48.660;10.164;2023-05-09T01:03:43;95894.34;;;13.57;100.00
73674;BME280;61975;48.660;10.164;2023-05-09T01:08:57;95893.13;;;13.47;100.00
73674;BME280;61975;48.660;10.164;2023-05-09T01:14:28;95881.56;;;13.38;100.00
73674;BME280;61975;48.660;10.164;2023-05-09T01:20:19;95874.75;;;13.29;100.00
73674;BME280;61975;48.660;10.164;2023-05-09T01:23:00;95879.16;;;13.23;100.00
73674;BME280;61975;48.660;10.164;2023-05-09T01:25:53;95871.56;;;13.20;100.00
73674;BME280;61975;48.660;10.164;2023-05-09T01:31:04;95866.38;;;13.11;100.00
73674;BME280;61975;48.660;10.164;2023-05-09T01:33:31;95860.78;;;13.08;100.00
73674;BME280;61975;48.660;10.164;2023-05-09T01:36:04;95863.94;;;13.03;100.00
73674;BME280;61975;48.660;10.164;2023-05-09T01:38:32;95869.84;;;12.98;100.00
73674;BME280;61975;48.660;10.164;2023-05-09T01:41:01;95859.91;;;12.93;100.00
73674;BME280;61975;48.660;10.164;2023-05-09T01:43:29;95864.69;;;12.89;100.00
73674;BME280;61975;48.660;10.164;2023-05-09T01:45:58;95864.66;;;12.86;100.00
73674;BME280;61975;48.660;10.164;2023-05-09T01:48:24;95859.88;;;12.83;100.00
73674;BME280;61975;48.660;10.164;2023-05-09T01:50:53;95862.25;;;12.81;100.00
73674;BME280;61975;48.660;10.164;2023-05-09T01:53:21;95854.69;;;12.78;100.00
73674;BME280;61975;48.660;10.164;2023-05-09T01:55:48;95857.06;;;12.76;100.00
73674;BME280;61975;48.660;10.164;2023-05-09T01:58:15;95853.88;;;12.74;100.00
73674;BME280;61975;48.660;10.164;2023-05-09T02:00:43;95851.06;;;12.70;100.00
73674;BME280;61975;48.660;10.164;2023-05-09T02:03:09;95858.59;;;12.70;100.00
73674;BME280;61975;48.660;10.164;2023-05-09T02:05:36;95857.41;;;12.67;100.00
73674;BME280;61975;48.660;10.164;2023-05-09T02:08:01;95851.84;;;12.64;100.00
73674;BME280;61975;48.660;10.164;2023-05-09T02:10:27;95851.84;;;12.64;100.00
73674;BME280;61975;48.660;10.164;2023-05-09T02:12:54;95854.97;;;12.59;100.00
73674;BME280;61975;48.660;10.164;2023-05-09T02:15:20;95853.41;;;12.58;100.00
73674;BME280;61975;48.660;10.164;2023-05-09T02:17:46;95855.75;;;12.56;100.00
73674;BME280;61975;48.660;10.164;2023-05-09T02:20:12;95851.78;;;12.53;100.00
73674;BME280;61975;48.660;10.164;2023-05-09T02:22:39;95856.53;;;12.49;100.00
73674;BME280;61975;48.660;10.164;2023-05-09T02:25:06;95852.16;;;12.48;100.00
73674;BME280;61975;48.660;10.164;2023-05-09T02:27:37;95854.53;;;12.46;100.00
73674;BME280;61975;48.660;10.164;2023-05-09T02:30:06;95860.53;;;12.48;100.00
73674;BME280;61975;48.660;10.164;2023-05-09T02:32:33;95856.13;;;12.47;100.00
73674;BME280;61975;48.660;10.164;2023-05-09T02:35:01;95860.91;;;12.47;100.00
73674;BME280;61975;48.660;10.164;2023-05-09T02:37:28;95860.09;;;12.46;100.00
73674;BME280;61975;48.660;10.164;2023-05-09T02:39:54;95860.09;;;12.46;100.00
73674;BME280;61975;48.660;10.164;2023-05-09T02:42:22;95856.50;;;12.46;100.00
73674;BME280;61975;48.660;10.164;2023-05-09T02:44:50;95854.53;;;12.46;100.00
73674;BME280;61975;48.660;10.164;2023-05-09T02:47:15;95855.72;;;12.45;100.00
73674;BME280;61975;48.660;10.164;2023-05-09T02:49:41;95852.13;;;12.45;100.00
73674;BME280;61975;48.660;10.164;2023-05-09T02:52:06;95856.13;;;12.44;100.00
73674;BME280;61975;48.660;10.164;2023-05-09T02:54:32;95846.16;;;12.43;100.00
73674;BME280;61975;48.660;10.164;2023-05-09T02:56:57;95851.31;;;12.41;100.00
73674;BME280;61975;48.660;10.164;2023-05-09T02:59:24;95845.34;;;12.39;100.00
73674;BME280;61975;48.660;10.164;2023-05-09T03:01:49;95846.53;;;12.38;100.00
73674;BME280;61975;48.660;10.164;2023-05-09T03:04:15;95841.34;;;12.36;100.00
73674;BME280;61975;48.660;10.164;2023-05-09T03:06:40;95831.41;;;12.35;100.00
73674;BME280;61975;48.660;10.164;2023-05-09T03:09:06;95829.41;;;12.32;100.00
73674;BME280;61975;48.660;10.164;2023-05-09T03:11:31;95833.78;;;12.30;100.00
73674;BME280;61975;48.660;10.164;2023-05-09T03:13:56;95837.75;;;12.29;100.00
73674;BME280;61975;48.660;10.164;2023-05-09T03:16:22;95842.91;;;12.27;100.00
73674;BME280;61975;48.660;10.164;2023-05-09T03:18:47;95830.16;;;12.26;100.00
73674;BME280;61975;48.660;10.164;2023-05-09T03:21:13;95830.94;;;12.23;100.00
73674;BME280;61975;48.660;10.164;2023-05-09T03:23:38;95828.56;;;12.21;100.00
73674;BME280;61975;48.660;10.164;2023-05-09T03:26:04;95826.16;;;12.20;100.00
73674;BME280;61975;48.660;10.164;2023-05-09T03:28:29;95826.94;;;12.17;100.00
73674;BME280;61975;48.660;10.164;2023-05-09T03:30:55;95819.78;;;12.16;100.00
73674;BME280;61975;48.660;10.164;2023-05-09T03:33:20;95826.13;;;12.13;100.00
73674;BME280;61975;48.660;10.164;2023-05-09T03:35:46;95824.53;;;12.12;100.00
73674;BME280;61975;48.660;10.164;2023-05-09T03:38:11;95818.16;;;12.11;100.00
73674;BME280;61975;48.660;10.164;2023-05-09T03:40:37;95818.53;;;12.06;100.00
73674;BME280;61975;48.660;10.164;2023-05-09T03:43:02;95819.72;;;12.09;100.00
73674;BME280;61975;48.660;10.164;2023-05-09T03:45:27;95825.66;;;12.04;100.00
73674;BME280;61975;48.660;10.164;2023-05-09T03:47:53;95819.69;;;12.05;100.00
73674;BME280;61975;48.660;10.164;2023-05-09T03:50:18;95822.88;;;12.04;100.00
73674;BME280;61975;48.660;10.164;2023-05-09T03:52:44;95827.28;;;12.05;100.00
73674;BME280;61975;48.660;10.164;2023-05-09T03:55:09;95819.28;;;12.00;100.00
73674;BME280;61975;48.660;10.164;2023-05-09T03:57:34;95826.84;;;12.03;100.00
73674;BME280;61975;48.660;10.164;2023-05-09T04:00:01;95829.63;;;12.03;100.00
73674;BME280;61975;48.660;10.164;2023-05-09T04:02:26;95819.69;;;12.02;100.00
73674;BME280;61975;48.660;10.164;2023-05-09T04:04:51;95816.13;;;12.05;100.00
73674;BME280;61975;48.660;10.164;2023-05-09T04:07:18;95819.72;;;12.09;100.00
73674;BME280;61975;48.660;10.164;2023-05-09T04:09:45;95813.41;;;12.12;100.00
73674;BME280;61975;48.660;10.164;2023-05-09T04:12:10;95819.78;;;12.16;100.00
73674;BME280;61975;48.660;10.164;2023-05-09T04:14:38;95817.78;;;12.16;100.00
73674;BME280;61975;48.660;10.164;2023-05-09T04:17:04;95823.38;;;12.20;100.00
73674;BME280;61975;48.660;10.164;2023-05-09T04:19:29;95825.00;;;12.24;100.00
73674;BME280;61975;48.660;10.164;2023-05-09T04:21:55;95815.06;;;12.27;100.00
73674;BME280;61975;48.660;10.164;2023-05-09T04:24:20;95818.25;;;12.29;100.00
73674;BME280;61975;48.660;10.164;2023-05-09T04:26:46;95816.25;;;12.26;100.00
73674;BME280;61975;48.660;10.164;2023-05-09T04:29:11;95810.31;;;12.31;100.00
73674;BME280;61975;48.660;10.164;2023-05-09T04:31:37;95810.31;;;12.31;100.00
73674;BME280;61975;48.660;10.164;2023-05-09T04:34:02;95811.94;;;12.39;100.00
73674;BME280;61975;48.660;10.164;2023-05-09T04:36:28;95811.16;;;12.42;100.00
73674;BME280;61975;48.660;10.164;2023-05-09T04:38:53;95813.50;;;12.33;100.00
73674;BME280;61975;48.660;10.164;2023-05-09T04:41:18;95818.31;;;12.39;100.00
73674;BME280;61975;48.660;10.164;2023-05-09T04:43:44;95806.38;;;12.46;100.00
73674;BME280;61975;48.660;10.164;2023-05-09T04:46:10;95806.41;;;12.49;100.00
73674;BME280;61975;48.660;10.164;2023-05-09T04:48:35;95806.81;;;12.48;100.00
73674;BME280;61975;48.660;10.164;2023-05-09T04:51:01;95792.50;;;12.53;100.00
73674;BME280;61975;48.660;10.164;2023-05-09T04:53:26;95802.47;;;12.54;100.00
73674;BME280;61975;48.660;10.164;2023-05-09T04:55:53;95799.69;;;12.61;100.00
73674;BME280;61975;48.660;10.164;2023-05-09T04:58:18;95802.50;;;12.64;100.00
73674;BME280;61975;48.660;10.164;2023-05-09T05:00:44;95804.88;;;12.66;100.00
73674;BME280;61975;48.660;10.164;2023-05-09T05:03:10;95796.56;;;12.69;99.38
73674;BME280;61975;48.660;10.164;2023-05-09T05:05:36;95796.91;;;12.54;98.01
73674;BME280;61975;48.660;10.164;2023-05-09T05:08:01;95798.13;;;12.63;96.40
73674;BME280;61975;48.660;10.164;2023-05-09T05:10:27;95799.31;;;12.66;94.25
73674;BME280;61975;48.660;10.164;2023-05-09T05:12:52;95798.53;;;12.69;92.55
73674;BME280;61975;48.660;10.164;2023-05-09T05:15:17;95798.91;;;12.60;91.13
73674;BME280;61975;48.660;10.164;2023-05-09T05:17:46;95796.13;;;12.67;90.10
73674;BME280;61975;48.660;10.164;2023-05-09T05:20:11;95798.94;;;12.64;89.22
73674;BME280;61975;48.660;10.164;2023-05-09T05:22:36;95799.28;;;12.59;89.78
73674;BME280;61975;48.660;10.164;2023-05-09T05:25:02;95798.94;;;12.71;88.88
73674;BME280;61975;48.660;10.164;2023-05-09T05:27:28;95795.38;;;12.77;88.83
73674;BME280;61975;48.660;10.164;2023-05-09T05:29:53;95795.41;;;12.81;89.58
73674;BME280;61975;48.660;10.164;2023-05-09T05:32:19;95795.41;;;12.88;87.88
73674;BME280;61975;48.660;10.164;2023-05-09T05:34:44;95799.38;;;12.94;87.93
73674;BME280;61975;48.660;10.164;2023-05-09T05:37:10;95797.41;;;12.98;87.62
73674;BME280;61975;48.660;10.164;2023-05-09T05:39:35;95804.22;;;13.04;88.03
73674;BME280;61975;48.660;10.164;2023-05-09T05:42:01;95806.66;;;13.09;86.73
73674;BME280;61975;48.660;10.164;2023-05-09T05:44:26;95804.25;;;13.11;86.80
73674;BME280;61975;48.660;10.164;2023-05-09T05:46:52;95807.03;;;13.14;86.74
73674;BME280;61975;48.660;10.164;2023-05-09T05:49:17;95812.22;;;13.12;83.25
73674;BME280;61975;48.660;10.164;2023-05-09T05:51:42;95807.44;;;13.16;84.39
73674;BME280;61975;48.660;10.164;2023-05-09T05:54:08;95811.44;;;13.19;84.47
73674;BME280;61975;48.660;10.164;2023-05-09T05:56:33;95803.84;;;13.19;84.70
73674;BME280;61975;48.660;10.164;2023-05-09T05:58:58;95795.91;;;13.21;83.91
73674;BME280;61975;48.660;10.164;2023-05-09T06:01:24;95792.31;;;13.14;82.70
73674;BME280;61975;48.660;10.164;2023-05-09T06:03:49;95787.53;;;13.14;83.16
73674;BME280;61975;48.660;10.164;2023-05-09T06:06:20;95792.31;;;13.17;82.29
73674;BME280;61975;48.660;10.164;2023-05-09T06:08:46;95793.09;;;13.18;83.46
73674;BME280;61975;48.660;10.164;2023-05-09T06:11:14;95788.34;;;13.18;83.78
73674;BME280;61975;48.660;10.164;2023-05-09T06:13:40;95792.31;;;13.17;84.56
73674;BME280;61975;48.660;10.164;2023-05-09T06:16:06;95797.47;;;13.15;84.51
73674;BME280;61975;48.660;10.164;2023-05-09T06:18:33;95794.72;;;13.19;84.57
73674;BME280;61975;48.660;10.164;2023-05-09T06:20:59;95785.94;;;13.20;83.67
73674;BME280;61975;48.660;10.164;2023-05-09T06:23:25;95780.78;;;13.19;84.17
73674;BME280;61975;48.660;10.164;2023-05-09T06:25:50;95779.56;;;13.20;84.45
73674;BME280;61975;48.660;10.164;2023-05-09T06:28:15;95777.56;;;13.20;84.72
73674;BME280;61975;48.660;10.164;2023-05-09T06:30:41;95788.31;;;13.22;85.78
73674;BME280;61975;48.660;10.164;2023-05-09T06:33:06;95792.72;;;13.23;84.84
73674;BME280;61975;48.660;10.164;2023-05-09T06:35:32;95794.31;;;13.24;85.17
73674;BME280;61975;48.660;10.164;2023-05-09T06:37:57;95787.16;;;13.23;84.10
73674;BME280;61975;48.660;10.164;2023-05-09T06:40:22;95782.75;;;13.25;84.84
73674;BME280;61975;48.660;10.164;2023-05-09T06:42:48;95783.56;;;13.26;84.28
73674;BME280;61975;48.660;10.164;2023-05-09T06:45:13;95773.19;;;13.26;82.84
73674;BME280;61975;48.660;10.164;2023-05-09T06:47:39;95774.81;;;13.31;81.46
73674;BME280;61975;48.660;10.164;2023-05-09T06:50:04;95783.97;;;13.38;81.94
73674;BME280;61975;48.660;10.164;2023-05-09T06:52:30;95779.97;;;13.43;82.83
73674;BME280;61975;48.660;10.164;2023-05-09T06:54:55;95767.25;;;13.45;83.32
73674;BME280;61975;48.660;10.164;2023-05-09T06:57:21;95768.03;;;13.35;82.30
73674;BME280;61975;48.660;10.164;2023-05-09T06:59:46;95762.44;;;13.39;82.49
73674;BME280;61975;48.660;10.164;2023-05-09T07:02:12;95758.09;;;13.48;81.62
73674;BME280;61975;48.660;10.164;2023-05-09T07:04:37;95758.88;;;13.42;83.32
73674;BME280;61975;48.660;10.164;2023-05-09T07:07:02;95750.91;;;13.51;81.71
73674;BME280;61975;48.660;10.164;2023-05-09T07:09:28;95746.09;;;13.62;80.88
73674;BME280;61975;48.660;10.164;2023-05-09T07:11:54;95742.13;;;13.73;79.77
73674;BME280;61975;48.660;10.164;2023-05-09T07:14:19;95742.88;;;13.81;79.62
73674;BME280;61975;48.660;10.164;2023-05-09T07:16:45;95734.91;;;13.94;79.61
73674;BME280;61975;48.660;10.164;2023-05-09T07:19:11;95732.91;;;13.98;79.47
73674;BME280;61975;48.660;10.164;2023-05-09T07:21:36;95730.09;;;13.98;79.18
73674;BME280;61975;48.660;10.164;2023-05-09T07:24:01;95725.66;;;14.14;79.75
73674;BME280;61975;48.660;10.164;2023-05-09T07:26:27;95725.22;;;14.19;77.57
73674;BME280;61975;48.660;10.164;2023-05-09T07:28:53;95718.47;;;14.24;77.49
73674;BME280;61975;48.660;10.164;2023-05-09T07:31:18;95725.22;;;14.37;78.04
73674;BME280;61975;48.660;10.164;2023-05-09T07:33:44;95708.03;;;14.38;77.36
73674;BME280;61975;48.660;10.164;2023-05-09T07:36:09;95706.00;;;14.49;77.97
73674;BME280;61975;48.660;10.164;2023-05-09T07:38:40;95702.78;;;14.54;78.67
73674;BME280;61975;48.660;10.164;2023-05-09T07:41:06;95691.94;;;14.63;77.63
73674;BME280;61975;48.660;10.164;2023-05-09T07:43:31;95697.09;;;14.72;77.54
73674;BME280;61975;48.660;10.164;2023-05-09T07:45:57;95690.69;;;14.78;77.58
73674;BME280;61975;48.660;10.164;2023-05-09T07:48:22;95686.66;;;14.79;79.34
73674;BME280;61975;48.660;10.164;2023-05-09T07:50:47;95691.00;;;14.91;79.77
73674;BME280;61975;48.660;10.164;2023-05-09T07:53:13;95686.56;;;14.90;78.74
73674;BME280;61975;48.660;10.164;2023-05-09T07:55:38;95679.41;;;14.92;79.08
73674;BME280;61975;48.660;10.164;2023-05-09T07:58:04;95690.06;;;15.04;78.42
73674;BME280;61975;48.660;10.164;2023-05-09T08:00:29;95689.56;;;15.20;78.57
73674;BME280;61975;48.660;10.164;2023-05-09T08:02:55;95684.66;;;15.31;77.42
73674;BME280;61975;48.660;10.164;2023-05-09T08:05:21;95687.47;;;15.31;77.64
73674;BME280;61975;48.660;10.164;2023-05-09T08:07:46;95675.03;;;15.35;79.24
73674;BME280;61975;48.660;10.164;2023-05-09T08:10:11;95668.75;;;15.24;79.60
73674;BME280;61975;48.660;10.164;2023-05-09T08:12:37;95649.06;;;15.38;80.08
73674;BME280;61975;48.660;10.164;2023-05-09T08:15:03;95656.22;;;15.43;80.50
73674;BME280;61975;48.660;10.164;2023-05-09T08:17:29;95658.25;;;15.35;81.60
73674;BME280;61975;48.660;10.164;2023-05-09T08:19:54;95661.06;;;15.35;81.03
73674;BME280;61975;48.660;10.164;2023-05-09T08:22:20;95660.22;;;15.42;83.07
73674;BME280;61975;48.660;10.164;2023-05-09T08:24:46;95660.56;;;15.47;82.72
73674;BME280;61975;48.660;10.164;2023-05-09T08:27:12;95650.41;;;15.23;83.74
73674;BME280;61975;48.660;10.164;2023-05-09T08:29:40;95642.19;;;15.46;83.59
73674;BME280;61975;48.660;10.164;2023-05-09T08:32:07;95646.13;;;15.52;82.90
73674;BME280;61975;48.660;10.164;2023-05-09T08:34:33;95643.34;;;15.52;82.96
73674;BME280;61975;48.660;10.164;2023-05-09T08:37:02;95633.16;;;15.69;83.16
73674;BME280;61975;48.660;10.164;2023-05-09T08:39:29;95637.69;;;15.56;81.81
73674;BME280;61975;48.660;10.164;2023-05-09T08:41:57;95638.81;;;15.65;81.32
73674;BME280;61975;48.660;10.164;2023-05-09T08:44:23;95644.50;;;15.58;81.76
73674;BME280;61975;48.660;10.164;2023-05-09T08:46:51;95640.91;;;15.54;83.26
73674;BME280;61975;48.660;10.164;2023-05-09T08:49:19;95635.13;;;15.72;83.15
73674;BME280;61975;48.660;10.164;2023-05-09T08:51:46;95628.22;;;15.83;82.68
73674;BME280;61975;48.660;10.164;2023-05-09T08:54:13;95631.84;;;15.80;82.32
73674;BME280;61975;48.660;10.164;2023-05-09T08:56:39;95617.88;;;15.77;81.25
73674;BME280;61975;48.660;10.164;2023-05-09T08:59:05;95623.41;;;15.84;84.21
73674;BME280;61975;48.660;10.164;2023-05-09T09:01:32;95621.78;;;15.86;83.28
73674;BME280;61975;48.660;10.164;2023-05-09T09:04:00;95617.69;;;15.94;81.34
73674;BME280;61975;48.660;10.164;2023-05-09T09:06:27;95611.66;;;15.96;82.14
73674;BME280;61975;48.660;10.164;2023-05-09T09:08:53;95613.47;;;16.13;80.82
73674;BME280;61975;48.660;10.164;2023-05-09T09:11:20;95614.94;;;16.21;81.37
73674;BME280;61975;48.660;10.164;2023-05-09T09:13:48;95616.50;;;16.25;78.87
73674;BME280;61975;48.660;10.164;2023-05-09T09:16:20;95602.56;;;16.18;79.41
73674;BME280;61975;48.660;10.164;2023-05-09T09:18:46;95594.50;;;16.24;81.17
73674;BME280;61975;48.660;10.164;2023-05-09T09:21:14;95597.06;;;16.41;79.91
73674;BME280;61975;48.660;10.164;2023-05-09T09:23:42;95597.63;;;16.60;78.89
73674;BME280;61975;48.660;10.164;2023-05-09T09:26:08;95595.84;;;16.73;80.15
73674;BME280;61975;48.660;10.164;2023-05-09T09:28:33;95591.69;;;16.81;80.27
73674;BME280;61975;48.660;10.164;2023-05-09T09:30:59;95583.59;;;16.86;76.10
73674;BME280;61975;48.660;10.164;2023-05-09T09:33:27;95581.94;;;16.89;76.54
73674;BME280;61975;48.660;10.164;2023-05-09T09:35:54;95578.72;;;16.90;76.03
73674;BME280;61975;48.660;10.164;2023-05-09T09:38:22;95576.81;;;17.07;74.96
73674;BME280;61975;48.660;10.164;2023-05-09T09:40:54;95572.19;;;17.20;77.31
73674;BME280;61975;48.660;10.164;2023-05-09T09:43:28;95565.69;;;17.26;75.71
73674;BME280;61975;48.660;10.164;2023-05-09T09:45:54;95566.19;;;17.44;75.36
73674;BME280;61975;48.660;10.164;2023-05-09T09:48:33;95552.44;;;17.50;73.28
73674;BME280;61975;48.660;10.164;2023-05-09T09:51:07;95548.66;;;17.60;73.72
73674;BME280;61975;48.660;10.164;2023-05-09T09:53:43;95541.13;;;17.53;73.47
73674;BME280;61975;48.660;10.164;2023-05-09T09:56:09;95540.50;;;17.65;73.25
73674;BME280;61975;48.660;10.164;2023-05-09T09:58:35;95534.22;;;17.77;71.84
73674;BME280;61975;48.660;10.164;2023-05-09T10:01:08;95527.19;;;17.89;69.88
73674;BME280;61975;48.660;10.164;2023-05-09T10:06:01;95522.22;;;17.77;68.71
73674;BME280;61975;48.660;10.164;2023-05-09T10:08:27;95525.31;;;17.82;70.81
73674;BME280;61975;48.660;10.164;2023-05-09T10:10:52;95516.66;;;17.93;70.60
73674;BME280;61975;48.660;10.164;2023-05-09T10:13:18;95520.13;;;18.00;69.58
73674;BME280;61975;48.660;10.164;2023-05-09T10:15:44;95513.19;;;18.05;67.55
73674;BME280;61975;48.660;10.164;2023-05-09T10:18:11;95517.06;;;18.11;69.72
73674;BME280;61975;48.660;10.164;2023-05-09T10:20:38;95512.53;;;18.17;70.62
73674;BME280;61975;48.660;10.164;2023-05-09T10:23:05;95508.25;;;18.28;70.19
73674;BME280;61975;48.660;10.164;2023-05-09T10:25:38;95498.25;;;18.27;65.08
73674;BME280;61975;48.660;10.164;2023-05-09T10:28:11;95488.78;;;18.02;60.53
73674;BME280;61975;48.660;10.164;2023-05-09T10:33:14;95491.97;;;18.20;66.83
73674;BME280;61975;48.660;10.164;2023-05-09T10:35:48;95491.38;;;18.28;68.46
73674;BME280;61975;48.660;10.164;2023-05-09T10:38:15;95479.84;;;18.42;67.90
73674;BME280;61975;48.660;10.164;2023-05-09T10:40:40;95477.66;;;18.50;68.04
73674;BME280;61975;48.660;10.164;2023-05-09T10:43:06;95474.25;;;18.58;67.76
73674;BME280;61975;48.660;10.164;2023-05-09T10:45:33;95472.38;;;18.68;67.76
73674;BME280;61975;48.660;10.164;2023-05-09T10:47:59;95469.03;;;18.73;64.42
73674;BME280;61975;48.660;10.164;2023-05-09T10:50:29;95462.59;;;18.88;62.18
73674;BME280;61975;48.660;10.164;2023-05-09T10:58:31;95460.41;;;19.12;60.48
73674;BME280;61975;48.660;10.164;2023-05-09T11:01:05;95455.53;;;19.13;59.85
73674;BME280;61975;48.660;10.164;2023-05-09T11:03:54;95448.84;;;19.23;58.31
73674;BME280;61975;48.660;10.164;2023-05-09T11:09:35;95438.09;;;19.34;59.13
73674;BME280;61975;48.660;10.164;2023-05-09T11:12:13;95438.00;;;19.37;58.51
73674;BME280;61975;48.660;10.164;2023-05-09T11:14:46;95433.91;;;19.54;58.95
73674;BME280;61975;48.660;10.164;2023-05-09T11:24:46;95408.31;;;20.02;58.46
73674;BME280;61975;48.660;10.164;2023-05-09T11:27:22;95409.47;;;20.17;59.36
73674;BME280;61975;48.660;10.164;2023-05-09T11:29:53;95405.06;;;20.29;58.42
73674;BME280;61975;48.660;10.164;2023-05-09T11:32:20;95395.69;;;20.44;58.64
73674;BME280;61975;48.660;10.164;2023-05-09T11:34:46;95390.63;;;20.52;59.20
73674;BME280;61975;48.660;10.164;2023-05-09T11:37:15;95396.25;;;20.64;58.77
73674;BME280;61975;48.660;10.164;2023-05-09T11:39:54;95392.59;;;20.76;58.39
73674;BME280;61975;48.660;10.164;2023-05-09T11:42:22;95377.13;;;20.81;58.18
73674;BME280;61975;48.660;10.164;2023-05-09T11:44:47;95384.22;;;20.98;58.26
73674;BME280;61975;48.660;10.164;2023-05-09T11:47:13;95359.22;;;21.09;57.77
73674;BME280;61975;48.660;10.164;2023-05-09T11:49:43;95366.97;;;21.17;58.23
73674;BME280;61975;48.660;10.164;2023-05-09T11:52:08;95365.19;;;21.32;58.49
73674;BME280;61975;48.660;10.164;2023-05-09T11:54:37;95366.25;;;21.47;57.57
73674;BME280;61975;48.660;10.164;2023-05-09T11:57:03;95350.19;;;21.66;58.11
73674;BME280;61975;48.660;10.164;2023-05-09T11:59:28;95358.19;;;21.80;56.75
73674;BME280;61975;48.660;10.164;2023-05-09T12:01:54;95340.75;;;21.82;55.56
73674;BME280;61975;48.660;10.164;2023-05-09T12:04:19;95345.34;;;21.88;55.13
73674;BME280;61975;48.660;10.164;2023-05-09T12:06:48;95340.16;;;21.87;55.95
73674;BME280;61975;48.660;10.164;2023-05-09T12:09:13;95328.50;;;21.85;55.75
73674;BME280;61975;48.660;10.164;2023-05-09T12:11:49;95330.06;;;21.77;54.86
73674;BME280;61975;48.660;10.164;2023-05-09T12:14:30;95332.06;;;21.76;55.25
73674;BME280;61975;48.660;10.164;2023-05-09T12:16:56;95318.81;;;21.86;55.00
73674;BME280;61975;48.660;10.164;2023-05-09T12:19:24;95328.22;;;21.83;53.53
73674;BME280;61975;48.660;10.164;2023-05-09T12:21:53;95328.03;;;21.86;55.47
73674;BME280;61975;48.660;10.164;2023-05-09T12:24:20;95319.00;;;22.00;54.49
73674;BME280;61975;48.660;10.164;2023-05-09T12:26:47;95316.00;;;21.95;54.14
73674;BME280;61975;48.660;10.164;2023-05-09T12:29:13;95302.03;;;21.70;55.42
73674;BME280;61975;48.660;10.164;2023-05-09T12:31:40;95303.59;;;21.71;55.31
73674;BME280;61975;48.660;10.164;2023-05-09T12:34:07;95305.78;;;21.88;55.31
73674;BME280;61975;48.660;10.164;2023-05-09T12:36:34;95293.91;;;22.11;55.00
73674;BME280;61975;48.660;10.164;2023-05-09T12:39:00;95288.75;;;22.10;53.66
73674;BME280;61975;48.660;10.164;2023-05-09T12:41:25;95281.31;;;22.03;54.32
73674;BME280;61975;48.660;10.164;2023-05-09T12:43:53;95282.94;;;22.13;54.68
73674;BME280;61975;48.660;10.164;2023-05-09T12:46:19;95278.72;;;22.18;54.04
73674;BME280;61975;48.660;10.164;2023-05-09T12:48:46;95272.13;;;22.21;53.84
73674;BME280;61975;48.660;10.164;2023-05-09T12:51:20;95270.22;;;22.27;53.22
73674;BME280;61975;48.660;10.164;2023-05-09T12:53:45;95260.22;;;22.35;53.47
73674;BME280;61975;48.660;10.164;2023-05-09T12:56:19;95264.69;;;22.63;54.12
73674;BME280;61975;48.660;10.164;2023-05-09T12:58:52;95260.44;;;22.76;52.70
73674;BME280;61975;48.660;10.164;2023-05-09T13:01:19;95256.84;;;22.76;52.09
73674;BME280;61975;48.660;10.164;2023-05-09T13:03:50;95245.19;;;22.83;52.08
73674;BME280;61975;48.660;10.164;2023-05-09T13:06:15;95240.13;;;23.05;52.47
73674;BME280;61975;48.660;10.164;2023-05-09T13:08:41;95232.91;;;23.22;51.98
73674;BME280;61975;48.660;10.164;2023-05-09T13:11:09;95242.31;;;23.37;50.92
73674;BME280;61975;48.660;10.164;2023-05-09T13:13:37;95238.50;;;23.49;51.24
73674;BME280;61975;48.660;10.164;2023-05-09T13:16:03;95236.00;;;23.42;50.12